createdAt,value
2023-03-31T00:00:43.857Z,8.23
2023-03-31T00:03:50.046Z,6.27
2023-03-31T00:06:57.554Z,11.10
2023-03-31T00:10:16.602Z,9.43
2023-03-31T00:13:25.101Z,8.27
2023-03-31T00:16:31.485Z,10.30
2023-03-31T00:19:37.933Z,12.50
2023-03-31T00:22:46.854Z,8.70
2023-03-31T00:25:53.088Z,8.57
2023-03-31T00:29:00.500Z,8.33
2023-03-31T00:32:07.390Z,10.00
2023-03-31T00:35:13.934Z,6.20
2023-03-31T00:38:29.163Z,9.03
2023-03-31T00:41:35.854Z,10.23
2023-03-31T00:45:21.795Z,6.73
2023-03-31T00:48:28.214Z,2.83
2023-03-31T00:51:35.892Z,5.77
2023-03-31T00:54:45.633Z,9.10
2023-03-31T00:57:53.919Z,8.57
2023-03-31T01:01:02.461Z,9.27
2023-03-31T01:04:10.552Z,5.93
2023-03-31T01:07:23.253Z,5.10
2023-03-31T01:10:34.148Z,5.63
2023-03-31T01:13:42.387Z,4.23
2023-03-31T01:16:48.685Z,5.53
2023-03-31T01:20:11.384Z,4.80
2023-03-31T01:23:57.329Z,5.50
2023-03-31T01:27:23.042Z,8.47
2023-03-31T01:30:52.002Z,7.03
2023-03-31T01:34:25.264Z,7.77
2023-03-31T01:38:01.262Z,6.87
2023-03-31T01:41:19.345Z,7.90
2023-03-31T01:44:33.725Z,7.50
2023-03-31T01:47:48.352Z,8.57
2023-03-31T01:50:58.657Z,8.53
2023-03-31T01:54:18.545Z,6.30
2023-03-31T01:57:33.726Z,2.50
2023-03-31T02:00:44.837Z,4.60
2023-03-31T02:03:56.133Z,7.03
2023-03-31T02:07:09.108Z,4.63
2023-03-31T02:10:18.644Z,3.33
2023-03-31T02:13:28.724Z,3.80
2023-03-31T02:16:42.000Z,3.93
2023-03-31T02:19:52.195Z,3.73
2023-03-31T02:22:59.112Z,4.70
2023-03-31T02:26:09.714Z,4.70
2023-03-31T02:29:17.362Z,8.03
2023-03-31T02:32:26.505Z,22.70
2023-03-31T02:35:36.896Z,17.37
2023-03-31T02:38:47.534Z,9.03
2023-03-31T02:41:54.488Z,5.23
2023-03-31T02:45:06.033Z,8.53
2023-03-31T02:48:17.420Z,8.13
2023-03-31T02:52:08.891Z,7.70
2023-03-31T02:55:30.786Z,10.07
2023-03-31T02:58:57.533Z,9.73
2023-03-31T03:02:19.398Z,17.93
2023-03-31T03:05:35.777Z,19.57
2023-03-31T03:09:04.454Z,16.90
2023-03-31T03:12:17.105Z,22.73
2023-03-31T03:15:30.164Z,43.93
2023-03-31T03:18:38.002Z,17.50
2023-03-31T03:21:44.320Z,7.30
2023-03-31T03:24:50.986Z,8.30
2023-03-31T03:27:57.615Z,8.03
2023-03-31T03:31:03.836Z,7.80
2023-03-31T03:34:11.840Z,26.57
2023-03-31T03:37:18.044Z,36.63
2023-03-31T03:40:24.015Z,39.47
2023-03-31T03:43:30.191Z,27.47
2023-03-31T03:46:36.432Z,50.83
2023-03-31T03:49:44.098Z,41.57
2023-03-31T03:52:50.225Z,32.97
2023-03-31T03:55:56.732Z,21.97
2023-03-31T03:59:02.974Z,11.27
2023-03-31T04:02:08.894Z,9.57
2023-03-31T04:05:16.713Z,7.50
2023-03-31T04:08:22.886Z,33.23
2023-03-31T04:11:28.810Z,12.43
2023-03-31T04:14:35.029Z,10.40
2023-03-31T04:17:41.313Z,8.40
2023-03-31T04:20:54.865Z,11.77
2023-03-31T04:24:02.028Z,12.50
2023-03-31T04:27:08.527Z,17.00
2023-03-31T04:30:23.047Z,11.47
2023-03-31T04:33:29.584Z,31.60
2023-03-31T04:36:42.682Z,30.57
2023-03-31T04:39:50.780Z,27.57
2023-03-31T04:42:56.824Z,17.53
2023-03-31T04:46:03.547Z,10.87
2023-03-31T04:49:10.121Z,12.53
2023-03-31T04:52:17.869Z,9.33
2023-03-31T04:55:24.220Z,28.50
2023-03-31T04:58:30.511Z,31.30
2023-03-31T05:01:37.492Z,27.77
2023-03-31T05:04:43.959Z,72.13
2023-03-31T05:07:51.378Z,61.57
2023-03-31T05:10:58.002Z,39.73
2023-03-31T05:14:04.325Z,31.33
2023-03-31T05:17:10.660Z,30.17
2023-03-31T05:20:17.017Z,29.67
2023-03-31T05:23:24.870Z,33.33
2023-03-31T05:26:31.262Z,15.50
2023-03-31T05:29:37.304Z,12.67
2023-03-31T05:32:44.054Z,16.07
2023-03-31T05:35:50.674Z,16.53
2023-03-31T05:38:58.471Z,18.00
2023-03-31T05:42:06.082Z,28.53
2023-03-31T05:45:12.710Z,26.67
2023-03-31T05:48:19.204Z,15.83
2023-03-31T05:51:25.645Z,17.43
2023-03-31T05:54:33.421Z,20.20
2023-03-31T05:57:39.982Z,23.40
2023-03-31T06:00:46.198Z,12.97
2023-03-31T06:03:52.836Z,6.17
2023-03-31T06:06:59.497Z,18.47
2023-03-31T06:10:10.900Z,22.60
2023-03-31T06:13:17.787Z,28.47
2023-03-31T06:16:23.824Z,9.83
2023-03-31T06:19:30.275Z,10.47
2023-03-31T06:22:36.622Z,11.73
2023-03-31T06:25:50.971Z,7.97
2023-03-31T06:28:58.352Z,109.33
2023-03-31T06:32:05.300Z,12.67
2023-03-31T06:35:11.974Z,18.17
2023-03-31T06:38:18.619Z,30.30
2023-03-31T06:41:26.727Z,11.27
2023-03-31T06:44:33.213Z,11.80
2023-03-31T06:47:41.618Z,9.70
2023-03-31T06:50:48.200Z,9.40
2023-03-31T06:53:54.417Z,13.90
2023-03-31T06:57:02.158Z,8.93
2023-03-31T07:00:10.242Z,6.27
2023-03-31T07:03:19.357Z,5.77
2023-03-31T07:06:25.800Z,6.93
2023-03-31T07:09:31.859Z,7.50
2023-03-31T07:12:39.271Z,7.70
2023-03-31T07:15:46.548Z,5.23
2023-03-31T07:18:54.976Z,7.87
2023-03-31T07:22:01.514Z,18.30
2023-03-31T07:25:08.428Z,5.53
2023-03-31T07:28:16.421Z,9.00
2023-03-31T07:31:22.807Z,14.87
2023-03-31T07:34:29.029Z,18.97
2023-03-31T07:37:37.184Z,4.20
2023-03-31T07:40:53.127Z,14.90
2023-03-31T07:44:10.132Z,3.00
2023-03-31T07:47:16.687Z,6.83
2023-03-31T07:50:23.822Z,4.40
2023-03-31T07:53:30.149Z,13.00
2023-03-31T07:56:36.552Z,8.73
2023-03-31T07:59:44.103Z,3.60
2023-03-31T08:02:50.660Z,5.87
2023-03-31T08:05:57.195Z,14.80
2023-03-31T08:09:05.279Z,6.27
2023-03-31T08:12:11.741Z,5.77
2023-03-31T08:15:19.696Z,4.87
2023-03-31T08:18:26.109Z,8.37
2023-03-31T08:21:32.282Z,9.50
2023-03-31T08:24:38.307Z,5.30
2023-03-31T08:27:44.331Z,12.40
2023-03-31T08:30:52.079Z,3.63
2023-03-31T08:33:58.639Z,5.27
2023-03-31T08:37:05.951Z,6.13
2023-03-31T08:40:18.025Z,12.20
2023-03-31T08:43:30.678Z,4.53
2023-03-31T08:46:40.014Z,9.67
2023-03-31T08:49:51.227Z,8.73
2023-03-31T08:53:05.371Z,8.63
2023-03-31T08:56:18.185Z,10.70
2023-03-31T08:59:31.240Z,7.77
2023-03-31T09:02:48.773Z,7.10
2023-03-31T09:06:02.377Z,9.00
2023-03-31T09:09:12.607Z,7.43
2023-03-31T09:12:22.332Z,12.03
2023-03-31T09:15:31.056Z,11.50
2023-03-31T09:18:40.814Z,8.10
2023-03-31T09:21:50.958Z,93.43
2023-03-31T09:25:02.740Z,49.60
2023-03-31T09:28:15.590Z,13.40
2023-03-31T09:31:23.756Z,7.90
2023-03-31T09:34:36.595Z,5.27
2023-03-31T09:37:42.823Z,14.73
2023-03-31T09:40:49.775Z,9.80
2023-03-31T09:43:56.667Z,7.03
2023-03-31T09:47:04.219Z,9.77
2023-03-31T09:50:13.434Z,7.20
2023-03-31T09:53:25.106Z,9.10
2023-03-31T09:56:46.307Z,11.73
2023-03-31T09:59:53.478Z,7.73
2023-03-31T10:03:07.849Z,10.17
2023-03-31T10:06:18.324Z,4.53
2023-03-31T10:09:29.064Z,6.77
2023-03-31T10:12:36.414Z,3.57
2023-03-31T10:15:43.463Z,7.17
2023-03-31T10:18:50.085Z,5.30
2023-03-31T10:22:02.225Z,5.10
2023-03-31T10:25:12.244Z,3.73
2023-03-31T10:28:21.194Z,3.40
2023-03-31T10:31:35.781Z,8.70
2023-03-31T10:34:44.160Z,9.60
2023-03-31T10:37:55.994Z,7.40
2023-03-31T10:41:02.898Z,2.87
2023-03-31T10:44:28.772Z,12.97
2023-03-31T10:47:36.489Z,5.13
2023-03-31T10:50:44.519Z,5.13
2023-03-31T10:53:52.227Z,4.57
2023-03-31T10:57:01.727Z,4.90
2023-03-31T11:00:18.542Z,5.10
2023-03-31T11:04:01.882Z,7.27
2023-03-31T11:07:17.939Z,7.37
2023-03-31T11:10:49.005Z,2.53
2023-03-31T11:14:01.723Z,3.80
2023-03-31T11:17:19.123Z,5.90
2023-03-31T11:20:33.697Z,4.50
2023-03-31T11:23:43.746Z,12.33
2023-03-31T11:27:00.920Z,4.10
2023-03-31T11:30:16.586Z,2.90
2023-03-31T11:33:55.132Z,6.03
2023-03-31T11:37:18.405Z,2.20
2023-03-31T11:40:41.107Z,2.63
2023-03-31T11:43:51.761Z,3.10
2023-03-31T11:47:01.933Z,3.30
2023-03-31T11:50:13.882Z,2.63
2023-03-31T11:53:26.972Z,1.87
2023-03-31T11:56:37.284Z,4.77
2023-03-31T11:59:45.384Z,3.90
2023-03-31T12:02:57.793Z,4.17
2023-03-31T12:06:09.683Z,3.93
2023-03-31T12:09:26.112Z,3.10
2023-03-31T12:12:36.416Z,3.53
2023-03-31T12:15:47.384Z,5.60
2023-03-31T12:19:04.337Z,7.67
2023-03-31T12:22:16.728Z,5.07
2023-03-31T12:25:26.701Z,38.37
2023-03-31T12:28:33.947Z,8.03
2023-03-31T12:31:43.765Z,4.17
2023-03-31T12:34:56.700Z,7.73
2023-03-31T12:38:20.681Z,3.97
2023-03-31T12:41:38.798Z,8.20
2023-03-31T12:44:55.983Z,9.33
2023-03-31T12:48:29.743Z,20.03
2023-03-31T12:51:52.084Z,7.60
2023-03-31T12:55:25.470Z,6.70
2023-03-31T12:58:47.270Z,3.53
2023-03-31T13:02:23.400Z,12.87
2023-03-31T13:05:48.407Z,13.87
2023-03-31T13:08:57.036Z,16.20
2023-03-31T13:12:08.834Z,13.20
2023-03-31T13:15:16.829Z,12.80
2023-03-31T13:18:24.667Z,19.60
2023-03-31T13:21:30.817Z,12.70
2023-03-31T13:24:37.162Z,20.00
2023-03-31T13:27:51.029Z,11.07
2023-03-31T13:31:02.290Z,9.67
2023-03-31T13:34:09.491Z,12.73
2023-03-31T13:37:24.222Z,11.73
2023-03-31T13:40:55.761Z,5.93
2023-03-31T13:44:40.679Z,8.10
2023-03-31T13:48:00.036Z,9.80
2023-03-31T13:51:23.879Z,6.63
2023-03-31T13:55:10.122Z,6.13
2023-03-31T13:58:53.858Z,6.83
2023-03-31T14:02:37.856Z,9.03
2023-03-31T14:05:48.874Z,10.90
2023-03-31T14:08:59.854Z,10.50
2023-03-31T14:12:23.896Z,12.33
2023-03-31T14:15:31.359Z,19.43
2023-03-31T14:18:43.655Z,22.30
2023-03-31T14:21:59.666Z,5.77
2023-03-31T14:25:15.872Z,6.03
2023-03-31T14:28:39.773Z,2.90
2023-03-31T14:31:53.868Z,6.43
2023-03-31T14:35:15.442Z,15.37
2023-03-31T14:38:24.891Z,7.87
2023-03-31T14:41:32.111Z,9.93
2023-03-31T14:44:38.945Z,7.30
2023-03-31T14:47:55.555Z,7.77
2023-03-31T14:51:04.185Z,11.67
2023-03-31T14:54:19.526Z,13.60
2023-03-31T14:57:32.034Z,22.10
2023-03-31T15:00:41.159Z,11.20
2023-03-31T15:03:48.435Z,11.07
2023-03-31T15:06:55.076Z,10.77
2023-03-31T15:10:03.970Z,16.67
2023-03-31T15:13:12.706Z,9.80
2023-03-31T15:16:28.536Z,9.03
2023-03-31T15:19:36.635Z,54.43
2023-03-31T15:22:43.145Z,13.17
2023-03-31T15:25:51.085Z,8.67
2023-03-31T15:29:02.668Z,7.93
2023-03-31T15:32:16.401Z,5.53
2023-03-31T15:35:25.939Z,5.43
2023-03-31T15:38:33.087Z,2.70
2023-03-31T15:41:41.067Z,68.43
2023-03-31T15:44:48.667Z,11.33
2023-03-31T15:47:56.166Z,14.00
2023-03-31T15:51:04.302Z,27.07
2023-03-31T15:54:31.220Z,10.87
2023-03-31T15:57:38.718Z,31.87
2023-03-31T16:00:47.554Z,22.40
2023-03-31T16:03:54.617Z,13.03
2023-03-31T16:07:07.798Z,14.30
2023-03-31T16:10:19.501Z,13.50
2023-03-31T16:13:30.575Z,11.63
2023-03-31T16:16:38.184Z,10.37
2023-03-31T16:19:47.823Z,38.63
2023-03-31T16:22:56.050Z,26.77
2023-03-31T16:26:03.406Z,36.33
2023-03-31T16:29:11.042Z,18.97
2023-03-31T16:32:20.881Z,24.27
2023-03-31T16:35:32.230Z,38.10
2023-03-31T16:38:38.276Z,31.50
2023-03-31T16:41:44.242Z,35.17
2023-03-31T16:45:09.641Z,35.07
2023-03-31T16:48:19.952Z,69.27
2023-03-31T16:51:26.324Z,65.97
2023-03-31T16:54:32.582Z,101.63
2023-03-31T16:57:39.120Z,84.57
2023-03-31T17:00:47.482Z,56.33
2023-03-31T17:03:54.090Z,87.90
2023-03-31T17:07:00.238Z,95.50
2023-03-31T17:10:07.828Z,67.70
2023-03-31T17:13:14.445Z,43.83
2023-03-31T17:16:29.399Z,49.77
2023-03-31T17:19:46.634Z,42.33
2023-03-31T17:22:53.146Z,40.87
2023-03-31T17:25:59.257Z,67.23
2023-03-31T17:29:05.931Z,69.93
2023-03-31T17:32:15.016Z,97.20
2023-03-31T17:35:22.657Z,61.83
2023-03-31T17:38:29.201Z,54.27
2023-03-31T17:41:35.489Z,47.27
2023-03-31T17:44:42.414Z,57.47
2023-03-31T17:47:50.035Z,16.90
2023-03-31T17:50:56.705Z,16.30
2023-03-31T17:54:04.102Z,25.00
2023-03-31T17:57:10.511Z,24.23
2023-03-31T18:00:17.664Z,17.00
2023-03-31T18:03:25.305Z,27.77
2023-03-31T18:06:31.958Z,21.60
2023-03-31T18:09:38.461Z,17.17
2023-03-31T18:12:44.820Z,51.00
2023-03-31T18:15:53.132Z,43.77
2023-03-31T18:19:01.886Z,39.80
2023-03-31T18:22:08.130Z,73.73
2023-03-31T18:25:15.509Z,103.40
2023-03-31T18:28:22.327Z,118.73
2023-03-31T18:31:28.903Z,145.20
2023-03-31T18:34:36.814Z,104.30
2023-03-31T18:37:43.105Z,65.03
2023-03-31T18:40:50.872Z,80.53
2023-03-31T18:43:57.274Z,79.43
2023-03-31T18:47:03.712Z,80.47
2023-03-31T18:50:14.084Z,84.33
2023-03-31T18:53:21.022Z,79.73
2023-03-31T18:56:27.328Z,94.70
2023-03-31T18:59:33.771Z,125.27
2023-03-31T19:02:40.191Z,104.70
2023-03-31T19:05:48.398Z,95.00
2023-03-31T19:08:57.107Z,129.83
2023-03-31T19:12:03.640Z,128.80
2023-03-31T19:15:11.252Z,121.17
2023-03-31T19:18:17.500Z,122.57
2023-03-31T19:21:25.356Z,141.97
2023-03-31T19:24:31.491Z,98.93
2023-03-31T19:27:37.969Z,91.13
2023-03-31T19:30:44.445Z,99.77
2023-03-31T19:33:51.088Z,89.63
2023-03-31T19:36:59.064Z,88.83
2023-03-31T19:40:06.039Z,78.37
2023-03-31T19:43:20.888Z,69.30
2023-03-31T19:46:27.592Z,57.23
2023-03-31T19:49:34.512Z,64.33
2023-03-31T19:52:42.423Z,57.27
2023-03-31T19:55:57.171Z,46.27
2023-03-31T19:59:03.707Z,45.33
2023-03-31T20:02:13.975Z,38.77
2023-03-31T20:05:20.712Z,51.00
2023-03-31T20:08:28.441Z,53.97
2023-03-31T20:11:34.747Z,60.97
2023-03-31T20:14:40.802Z,61.00
2023-03-31T20:17:47.414Z,94.50
2023-03-31T20:20:53.503Z,122.43
2023-03-31T20:24:01.491Z,105.93
2023-03-31T20:27:07.521Z,107.00
2023-03-31T20:30:14.070Z,81.67
2023-03-31T20:33:20.129Z,56.83
2023-03-31T20:36:28.965Z,36.60
2023-03-31T20:39:37.713Z,81.83
2023-03-31T20:42:43.960Z,70.73
2023-03-31T20:45:54.942Z,84.50
2023-03-31T20:49:01.194Z,95.57
2023-03-31T20:52:07.257Z,101.63
2023-03-31T20:55:15.286Z,132.43
2023-03-31T20:58:21.847Z,95.13
2023-03-31T21:01:29.848Z,100.10
2023-03-31T21:04:36.251Z,82.77
2023-03-31T21:07:42.836Z,64.90
2023-03-31T21:10:50.755Z,65.73
2023-03-31T21:13:57.078Z,83.27
2023-03-31T21:17:03.602Z,140.60
2023-03-31T21:20:11.223Z,86.70
2023-03-31T21:23:17.735Z,73.83
2023-03-31T21:26:25.996Z,82.93
2023-03-31T21:29:32.302Z,58.20
2023-03-31T21:32:38.780Z,88.50
2023-03-31T21:35:44.967Z,63.83
2023-03-31T21:38:53.257Z,59.07
2023-03-31T21:42:00.967Z,53.07
2023-03-31T21:45:08.208Z,55.83
2023-03-31T21:48:14.101Z,47.97
2023-03-31T21:51:22.062Z,39.33
2023-03-31T21:54:28.140Z,35.10
2023-03-31T21:57:35.988Z,35.63
2023-03-31T22:00:42.298Z,35.07
2023-03-31T22:03:48.999Z,47.47
2023-03-31T22:06:55.403Z,51.50
2023-03-31T22:10:01.786Z,26.50
2023-03-31T22:13:09.361Z,109.57
2023-03-31T22:16:18.530Z,42.10
2023-03-31T22:19:24.530Z,35.07
2023-03-31T22:22:30.961Z,31.70
2023-03-31T22:25:37.081Z,31.20
2023-03-31T22:28:44.742Z,34.63
2023-03-31T22:31:50.929Z,28.70
2023-03-31T22:34:57.296Z,33.30
2023-03-31T22:38:05.053Z,30.40
2023-03-31T22:41:13.644Z,30.67
2023-03-31T22:44:21.858Z,43.20
2023-03-31T22:47:28.272Z,38.80
2023-03-31T22:50:34.777Z,31.20
2023-03-31T22:53:40.967Z,30.50
2023-03-31T22:56:47.312Z,35.77
2023-03-31T22:59:54.823Z,28.30
2023-03-31T23:03:01.389Z,28.90
2023-03-31T23:06:08.619Z,26.67
2023-03-31T23:09:14.825Z,40.13
2023-03-31T23:12:20.932Z,41.53
2023-03-31T23:15:28.196Z,39.90
2023-03-31T23:18:34.496Z,29.00
2023-03-31T23:21:40.854Z,23.63
2023-03-31T23:24:46.867Z,21.93
2023-03-31T23:27:53.434Z,31.83
2023-03-31T23:31:01.096Z,20.40
2023-03-31T23:34:07.515Z,36.43
2023-03-31T23:37:16.681Z,40.13
2023-03-31T23:40:23.128Z,18.97
2023-03-31T23:43:30.394Z,18.10
2023-03-31T23:46:39.443Z,27.70
2023-03-31T23:49:45.752Z,14.67
2023-03-31T23:52:52.121Z,14.17
2023-03-31T23:56:01.419Z,21.20
2023-03-31T23:59:07.771Z,21.30
